Amber Lagoon — V7FS4 — position and weather

sailwx.info

Track history (hours):
 
Tides and Currents Weather Stations Pressure Air Temp Water Temp Dewpoint Dewpoint Depression Visibility Wind Speed Wind Dir Waves Ship Positions

Amber Lagoon

Last reported at 2015-May-26 03:21 UTC. Time now 2015-May-29 20:26 UTC.
Position N 20°19' W 095°59'.

Length 192 m; draft 8.6 m.

Type: Cargo ship. MMSI: 538090116.

Date/timePositionNaut miles runAvg speedWind from/ knotsBaromVisibWave heightAir tempDewpointWater temp
2015-May-26 03:21N 20°19' W 095°59'1517.1
2015-May-26 02:27N 20°06' W 095°50'1516.8
2015-May-26 01:33N 19°55' W 095°40'1716.5
2015-May-26 00:33N 19°41' W 095°29'2116.6
2015-May-25 23:17N 19°24' W 095°16'1216.6
2015-May-25 22:32N 19°14' W 095°09'1616.4
2015-May-25 21:33N 19°00' W 094°60'1816.4
2015-May-25 20:29N 18°46' W 094°49'2416.6
2015-May-25 19:03N 18°26' W 094°35'  
2015-May-21 14:33N 25°43' W 079°31'1413.6
2015-May-21 13:33N 25°57' W 079°30'1413.6
2015-May-21 12:33N 26°10' W 079°27'1613.7
2015-May-21 11:24N 26°26' W 079°24'1514.1
2015-May-21 10:21N 26°40' W 079°21'1114.1
2015-May-21 09:33N 26°51' W 079°20'2914.1
2015-May-21 07:31N 27°20' W 079°14'1414.2
2015-May-21 06:33N 27°31' W 079°06'1716.8
2015-May-21 05:33N 27°37' W 078°48'3516.6
2015-May-21 03:25N 27°44' W 078°09'  
2015-May-18 17:10N 38°23' W 074°40'913.9
2015-May-18 16:33N 38°30' W 074°47'1413.8
2015-May-18 15:34N 38°41' W 074°57'1312.5
2015-May-18 14:33N 38°52' W 075°05'1413.8
2015-May-18 13:34N 39°05' W 075°11'1313.0
2015-May-18 12:34N 39°16' W 075°20'1414.0
2015-May-18 11:33N 39°26' W 075°32'1313.5
2015-May-18 10:33N 39°40' W 075°32'1111.1
2015-May-18 09:33N 39°49' W 075°24'1110.9
2015-May-18 08:33N 39°53' W 075°11'4 4.0
2015-May-18 07:33N 39°56' W 075°08'0 0.0
2015-May-18 06:33N 39°56' W 075°08'0 0.0
2015-May-18 05:33N 39°56' W 075°08'0 0.0
2015-May-18 04:33N 39°56' W 075°08'0 0.0
2015-May-18 03:33N 39°56' W 075°08'0 0.0
2015-May-18 02:33N 39°56' W 075°08'0 0.0
2015-May-18 01:34N 39°56' W 075°08'0 0.0
2015-May-18 00:33N 39°56' W 075°08'0 0.0
2015-May-17 23:33N 39°56' W 075°08'0 0.0
2015-May-17 22:33N 39°56' W 075°08'0 0.0
2015-May-17 21:33N 39°56' W 075°08'0 0.0
2015-May-17 20:33N 39°56' W 075°08'0 0.0
2015-May-17 19:33N 39°56' W 075°08'0 0.0
2015-May-17 18:33N 39°56' W 075°08'0 0.0
2015-May-17 17:33N 39°56' W 075°08'0 0.0
2015-May-17 16:33N 39°56' W 075°08'0 0.0
2015-May-17 15:33N 39°56' W 075°08'0 0.0
2015-May-17 14:34N 39°56' W 075°08'0 0.0
2015-May-17 13:33N 39°56' W 075°08'0 0.0
2015-May-17 12:33N 39°56' W 075°08'0 0.0
2015-May-17 11:33N 39°56' W 075°08'0 0.4
2015-May-17 10:33N 39°56' W 075°08'6 5.7
2015-May-17 09:33N 39°52' W 075°13'10 9.5
2015-May-17 08:33N 39°48' W 075°25'1110.7
2015-May-17 07:33N 39°39' W 075°33'1111.0
2015-May-17 06:33N 39°28' W 075°34'1212.1
2015-May-17 05:33N 39°19' W 075°24'1212.4
2015-May-17 04:33N 39°09' W 075°14'1312.6
2015-May-17 03:33N 38°58' W 075°07'1211.8
2015-May-17 02:33N 38°47' W 075°01'8 8.0
2015-May-17 01:33N 38°42' W 074°53'1010.2
2015-May-17 00:33N 38°34' W 074°45'1210.9
2015-May-16 23:30N 38°27' W 074°33'2912.5
2015-May-16 21:11N 38°18' W 073°58'2312.9
2015-May-16 19:26N 38°10' W 073°31'1314.0
2015-May-16 18:32N 38°06' W 073°16'  
Track history (hours):
 
Tides and Currents Weather Stations Pressure Air Temp Water Temp Dewpoint Dewpoint Depression Visibility Wind Speed Wind Dir Waves Ship Positions

Amber Lagoon

Last reported at 2015-May-26 03:21 UTC. Time now 2015-May-29 20:26 UTC.
Position N 20°19' W 095°59'.

Length 192 m; draft 8.6 m.

Type: Cargo ship. MMSI: 538090116.

Date/timePositionNaut miles runAvg speedWind from/ knotsBaromVisibWave heightAir tempDewpointWater temp
2015-May-26 03:21N 20°19' W 095°59'1517.1
2015-May-26 02:27N 20°06' W 095°50'1516.8
2015-May-26 01:33N 19°55' W 095°40'1716.5
2015-May-26 00:33N 19°41' W 095°29'2116.6
2015-May-25 23:17N 19°24' W 095°16'1216.6
2015-May-25 22:32N 19°14' W 095°09'1616.4
2015-May-25 21:33N 19°00' W 094°60'1816.4
2015-May-25 20:29N 18°46' W 094°49'2416.6
2015-May-25 19:03N 18°26' W 094°35'  
2015-May-21 14:33N 25°43' W 079°31'1413.6
2015-May-21 13:33N 25°57' W 079°30'1413.6
2015-May-21 12:33N 26°10' W 079°27'1613.7
2015-May-21 11:24N 26°26' W 079°24'1514.1
2015-May-21 10:21N 26°40' W 079°21'1114.1
2015-May-21 09:33N 26°51' W 079°20'2914.1
2015-May-21 07:31N 27°20' W 079°14'1414.2
2015-May-21 06:33N 27°31' W 079°06'1716.8
2015-May-21 05:33N 27°37' W 078°48'3516.6
2015-May-21 03:25N 27°44' W 078°09'  
2015-May-18 17:10N 38°23' W 074°40'913.9
2015-May-18 16:33N 38°30' W 074°47'1413.8
2015-May-18 15:34N 38°41' W 074°57'1312.5
2015-May-18 14:33N 38°52' W 075°05'1413.8
2015-May-18 13:34N 39°05' W 075°11'1313.0
2015-May-18 12:34N 39°16' W 075°20'1414.0
2015-May-18 11:33N 39°26' W 075°32'1313.5
2015-May-18 10:33N 39°40' W 075°32'1111.1
2015-May-18 09:33N 39°49' W 075°24'1110.9
2015-May-18 08:33N 39°53' W 075°11'4 4.0
2015-May-18 07:33N 39°56' W 075°08'0 0.0
2015-May-18 06:33N 39°56' W 075°08'0 0.0
2015-May-18 05:33N 39°56' W 075°08'0 0.0
2015-May-18 04:33N 39°56' W 075°08'0 0.0
2015-May-18 03:33N 39°56' W 075°08'0 0.0
2015-May-18 02:33N 39°56' W 075°08'0 0.0
2015-May-18 01:34N 39°56' W 075°08'0 0.0
2015-May-18 00:33N 39°56' W 075°08'0 0.0
2015-May-17 23:33N 39°56' W 075°08'0 0.0
2015-May-17 22:33N 39°56' W 075°08'0 0.0
2015-May-17 21:33N 39°56' W 075°08'0 0.0
2015-May-17 20:33N 39°56' W 075°08'0 0.0
2015-May-17 19:33N 39°56' W 075°08'0 0.0
2015-May-17 18:33N 39°56' W 075°08'0 0.0
2015-May-17 17:33N 39°56' W 075°08'0 0.0
2015-May-17 16:33N 39°56' W 075°08'0 0.0
2015-May-17 15:33N 39°56' W 075°08'0 0.0
2015-May-17 14:34N 39°56' W 075°08'0 0.0
2015-May-17 13:33N 39°56' W 075°08'0 0.0
2015-May-17 12:33N 39°56' W 075°08'0 0.0
2015-May-17 11:33N 39°56' W 075°08'0 0.4
2015-May-17 10:33N 39°56' W 075°08'6 5.7
2015-May-17 09:33N 39°52' W 075°13'10 9.5
2015-May-17 08:33N 39°48' W 075°25'1110.7
2015-May-17 07:33N 39°39' W 075°33'1111.0
2015-May-17 06:33N 39°28' W 075°34'1212.1
2015-May-17 05:33N 39°19' W 075°24'1212.4
2015-May-17 04:33N 39°09' W 075°14'1312.6
2015-May-17 03:33N 38°58' W 075°07'1211.8
2015-May-17 02:33N 38°47' W 075°01'8 8.0
2015-May-17 01:33N 38°42' W 074°53'1010.2
2015-May-17 00:33N 38°34' W 074°45'1210.9
2015-May-16 23:30N 38°27' W 074°33'2912.5
2015-May-16 21:11N 38°18' W 073°58'2312.9
2015-May-16 19:26N 38°10' W 073°31'1314.0
2015-May-16 18:32N 38°06' W 073°16'  

Dump ship's entire track history